Cranberry Township, PA

11:10 PM EST on February 21, 2017 (GMT -0500)
Wingard WX Station | | Change Station

Elev 1089 ft 40.69 °N, 80.13 °W | Updated 34 seconds ago

Overcast
Overcast
55.1 °F
Feels Like 55.1 °F
N
0.0
Wind Variable Wind from NNW

Today
High -- | Low -- °F
--% Chance of Precip.
Yesterday
High -- | Low -- °F
Precip. -- in
Pressure 29.97 in
Visibility 10.0 miles
Clouds Scattered Clouds 9500 ft
Scattered Clouds 11000 ft
Dew Point 44 °F
Humidity 65%
Rainfall 0.00 in
Snow Depth Not available.
7:05 AM 6:02 PM
Waning Crescent, 20% visible
METAR KBTP 220355Z AUTO 00000KT 10SM SCT095 SCT110 12/06 A2997 RMK AO1
Pressure 29.97 in
Visibility 10.0 miles
Clouds Scattered Clouds 9500 ft
Scattered Clouds 11000 ft
Dew Point 44 °F
Humidity 65%
Rainfall 0.00 in
Snow Depth Not available.
7:05 AM 6:02 PM
Waning Crescent, 20% visible
METAR KBTP 220355Z AUTO 00000KT 10SM SCT095 SCT110 12/06 A2997 RMK AO1

Get Your Daily Forecast Email!

Thanks for signing up!

Be on the lookout for a verification email in your inbox.

You'll start receiving the daily forecast at 8 AM.

×

10-Day Weather Forecast

Almanac

Astronomy

Feb. 21, 2017 Rise Set
Actual Time
Civil Twilight
Nautical Twilight
Astronomical Twilight
Moon
Length of Visible Light
Length of Day
Tomorrow will be .
, % of the Moon is Illuminated

Today's Extremes

State Highs State Lows

Community

WunderPhotos

Upload Photos

1,962,540 photos uploaded!

WunderBlog® & News

Nearby

Air Quality

  Air Quality AQ Index Pollutant
Not available.

Snow Depth

Station Depth Elevation

Earthquake Activity

City Distance Mag. Time & Date
Minimum magnitude displayed is 2.5.

Coastal Water Temperatures

Place Temperature

Stations

Nearby Weather Stations

Station Location Temp. Windchill Dew Point Humidity Wind Precip. Elev Updated Type
                   

Watches & Warnings

There are currently no watches in effect.